Marola — IBFL — position and weather

sailwx.info

Track history (hours):
 
Tides and Currents Weather Stations Pressure Air Temp Water Temp Dewpoint Dewpoint Depression Visibility Wind Speed Wind Dir Waves Ship Positions

Marola

Last reported at 2014-Aug-23 03:32 UTC. Time now 2014-Sep-22 04:19 UTC.
Position N 29°58' W 090°16'.
Warning: this ship's position is 30 days out of date.

Length 180 m; draft 7.7 m.

Type: Tanker. MMSI: 247094900.

Date/timePositionNaut miles runAvg speedWind from/ knotsBaromVisibWave heightAir tempDewpointWater temp
2014-Aug-23 03:32N 29°58' W 090°16'0 0.0
2014-Aug-23 02:32N 29°58' W 090°16'0 0.0
2014-Aug-23 01:32N 29°58' W 090°16'0 0.0
2014-Aug-23 00:32N 29°58' W 090°16'0 0.0
2014-Aug-22 23:26N 29°58' W 090°16'0 0.0
2014-Aug-22 14:23N 29°58' W 090°16'0 0.0
2014-Aug-22 12:32N 29°58' W 090°16'0 0.0
2014-Aug-22 11:32N 29°58' W 090°16'0 0.0
2014-Aug-22 10:32N 29°58' W 090°16'0 0.0
2014-Aug-22 09:32N 29°58' W 090°16'0 0.0
2014-Aug-22 08:32N 29°58' W 090°16'0 0.0
2014-Aug-22 07:32N 29°58' W 090°16'0 0.0
2014-Aug-22 06:29N 29°58' W 090°16'0 0.0
2014-Aug-22 05:32N 29°58' W 090°16'0 0.0
2014-Aug-22 04:32N 29°58' W 090°16'0 0.0
2014-Aug-22 03:29N 29°58' W 090°16'0 0.0
2014-Aug-22 02:32N 29°58' W 090°16'0 0.0
2014-Aug-22 01:29N 29°58' W 090°16'0 0.0
2014-Aug-22 00:32N 29°58' W 090°16'0 0.0
2014-Aug-21 23:32N 29°58' W 090°16'0 0.0
2014-Aug-21 22:32N 29°58' W 090°16'0 0.0
2014-Aug-21 12:32N 29°58' W 090°16'0 0.0
2014-Aug-21 11:32N 29°58' W 090°16'0 0.0
2014-Aug-21 10:32N 29°58' W 090°16'0 0.0
2014-Aug-21 09:29N 29°58' W 090°16'0 0.0
2014-Aug-21 08:32N 29°58' W 090°16'0 0.0
2014-Aug-21 07:32N 29°58' W 090°16'0 0.0
2014-Aug-21 06:32N 29°58' W 090°16'0 0.0
2014-Aug-21 05:32N 29°58' W 090°16'0 0.0
2014-Aug-21 04:32N 29°58' W 090°16'0 0.0
2014-Aug-21 03:32N 29°58' W 090°16'0 0.0
2014-Aug-21 02:33N 29°58' W 090°16'0 0.4
2014-Aug-21 01:33N 29°58' W 090°16'0 0.0
2014-Aug-21 00:31N 29°58' W 090°16'0 0.0
2014-Aug-20 23:34N 29°58' W 090°16'0 0.0
2014-Aug-20 22:33N 29°58' W 090°16'15 3.8
2014-Aug-20 18:33N 30°03' W 090°33'19 3.2
2014-Aug-20 12:29N 30°05' W 090°55'0 0.0
2014-Aug-20 11:23N 30°05' W 090°55'0 0.0
2014-Aug-20 06:05N 30°05' W 090°55'0 0.0
2014-Aug-20 05:29N 30°05' W 090°55'0 0.0
2014-Aug-20 04:23N 30°05' W 090°55'0 0.0
2014-Aug-20 03:29N 30°05' W 090°55'0 0.0
2014-Aug-20 02:17N 30°05' W 090°55'0 0.0
2014-Aug-20 01:29N 30°05' W 090°55'0 0.0
2014-Aug-20 00:11N 30°05' W 090°55'9 1.0
2014-Aug-19 15:16N 30°01' W 090°46'710.3
2014-Aug-19 14:33N 30°02' W 090°38'8 8.1
2014-Aug-19 13:33N 30°02' W 090°28'10 9.7
2014-Aug-19 12:33N 29°56' W 090°19'10 9.1
2014-Aug-19 11:30N 29°57' W 090°08'7 6.9
2014-Aug-19 10:29N 29°57' W 090°00'39412.3
2014-Aug-18 02:26N 27°36' W 083°01'1213.3
2014-Aug-18 01:33N 27°37' W 082°47'1312.6
2014-Aug-18 00:33N 27°41' W 082°34'15 1.0
2014-Aug-17 09:26N 27°54' W 082°25'0 0.0
2014-Aug-17 08:32N 27°54' W 082°25'0 0.0
2014-Aug-17 07:32N 27°54' W 082°25'0 0.0
2014-Aug-17 06:32N 27°54' W 082°25'0 0.0
2014-Aug-17 05:26N 27°54' W 082°25'0 0.0
2014-Aug-17 04:32N 27°54' W 082°25'0 0.0
2014-Aug-17 03:32N 27°54' W 082°25'0 0.0
2014-Aug-16 23:14N 27°54' W 082°25'0 0.0
2014-Aug-16 22:26N 27°54' W 082°25'1 1.0
2014-Aug-16 21:29N 27°54' W 082°26'9 9.9
2014-Aug-16 20:33N 27°46' W 082°31'1312.6
2014-Aug-16 19:33N 27°37' W 082°41'1212.0
2014-Aug-16 18:33N 27°36' W 082°55'9 8.8
2014-Aug-16 17:33N 27°30' W 083°03'  
Track history (hours):
 
Tides and Currents Weather Stations Pressure Air Temp Water Temp Dewpoint Dewpoint Depression Visibility Wind Speed Wind Dir Waves Ship Positions

Marola

Last reported at 2014-Aug-23 03:32 UTC. Time now 2014-Sep-22 04:19 UTC.
Position N 29°58' W 090°16'.
Warning: this ship's position is 30 days out of date.

Length 180 m; draft 7.7 m.

Type: Tanker. MMSI: 247094900.

Date/timePositionNaut miles runAvg speedWind from/ knotsBaromVisibWave heightAir tempDewpointWater temp
2014-Aug-23 03:32N 29°58' W 090°16'0 0.0
2014-Aug-23 02:32N 29°58' W 090°16'0 0.0
2014-Aug-23 01:32N 29°58' W 090°16'0 0.0
2014-Aug-23 00:32N 29°58' W 090°16'0 0.0
2014-Aug-22 23:26N 29°58' W 090°16'0 0.0
2014-Aug-22 14:23N 29°58' W 090°16'0 0.0
2014-Aug-22 12:32N 29°58' W 090°16'0 0.0
2014-Aug-22 11:32N 29°58' W 090°16'0 0.0
2014-Aug-22 10:32N 29°58' W 090°16'0 0.0
2014-Aug-22 09:32N 29°58' W 090°16'0 0.0
2014-Aug-22 08:32N 29°58' W 090°16'0 0.0
2014-Aug-22 07:32N 29°58' W 090°16'0 0.0
2014-Aug-22 06:29N 29°58' W 090°16'0 0.0
2014-Aug-22 05:32N 29°58' W 090°16'0 0.0
2014-Aug-22 04:32N 29°58' W 090°16'0 0.0
2014-Aug-22 03:29N 29°58' W 090°16'0 0.0
2014-Aug-22 02:32N 29°58' W 090°16'0 0.0
2014-Aug-22 01:29N 29°58' W 090°16'0 0.0
2014-Aug-22 00:32N 29°58' W 090°16'0 0.0
2014-Aug-21 23:32N 29°58' W 090°16'0 0.0
2014-Aug-21 22:32N 29°58' W 090°16'0 0.0
2014-Aug-21 12:32N 29°58' W 090°16'0 0.0
2014-Aug-21 11:32N 29°58' W 090°16'0 0.0
2014-Aug-21 10:32N 29°58' W 090°16'0 0.0
2014-Aug-21 09:29N 29°58' W 090°16'0 0.0
2014-Aug-21 08:32N 29°58' W 090°16'0 0.0
2014-Aug-21 07:32N 29°58' W 090°16'0 0.0
2014-Aug-21 06:32N 29°58' W 090°16'0 0.0
2014-Aug-21 05:32N 29°58' W 090°16'0 0.0
2014-Aug-21 04:32N 29°58' W 090°16'0 0.0
2014-Aug-21 03:32N 29°58' W 090°16'0 0.0
2014-Aug-21 02:33N 29°58' W 090°16'0 0.4
2014-Aug-21 01:33N 29°58' W 090°16'0 0.0
2014-Aug-21 00:31N 29°58' W 090°16'0 0.0
2014-Aug-20 23:34N 29°58' W 090°16'0 0.0
2014-Aug-20 22:33N 29°58' W 090°16'15 3.8
2014-Aug-20 18:33N 30°03' W 090°33'19 3.2
2014-Aug-20 12:29N 30°05' W 090°55'0 0.0
2014-Aug-20 11:23N 30°05' W 090°55'0 0.0
2014-Aug-20 06:05N 30°05' W 090°55'0 0.0
2014-Aug-20 05:29N 30°05' W 090°55'0 0.0
2014-Aug-20 04:23N 30°05' W 090°55'0 0.0
2014-Aug-20 03:29N 30°05' W 090°55'0 0.0
2014-Aug-20 02:17N 30°05' W 090°55'0 0.0
2014-Aug-20 01:29N 30°05' W 090°55'0 0.0
2014-Aug-20 00:11N 30°05' W 090°55'9 1.0
2014-Aug-19 15:16N 30°01' W 090°46'710.3
2014-Aug-19 14:33N 30°02' W 090°38'8 8.1
2014-Aug-19 13:33N 30°02' W 090°28'10 9.7
2014-Aug-19 12:33N 29°56' W 090°19'10 9.1
2014-Aug-19 11:30N 29°57' W 090°08'7 6.9
2014-Aug-19 10:29N 29°57' W 090°00'39412.3
2014-Aug-18 02:26N 27°36' W 083°01'1213.3
2014-Aug-18 01:33N 27°37' W 082°47'1312.6
2014-Aug-18 00:33N 27°41' W 082°34'15 1.0
2014-Aug-17 09:26N 27°54' W 082°25'0 0.0
2014-Aug-17 08:32N 27°54' W 082°25'0 0.0
2014-Aug-17 07:32N 27°54' W 082°25'0 0.0
2014-Aug-17 06:32N 27°54' W 082°25'0 0.0
2014-Aug-17 05:26N 27°54' W 082°25'0 0.0
2014-Aug-17 04:32N 27°54' W 082°25'0 0.0
2014-Aug-17 03:32N 27°54' W 082°25'0 0.0
2014-Aug-16 23:14N 27°54' W 082°25'0 0.0
2014-Aug-16 22:26N 27°54' W 082°25'1 1.0
2014-Aug-16 21:29N 27°54' W 082°26'9 9.9
2014-Aug-16 20:33N 27°46' W 082°31'1312.6
2014-Aug-16 19:33N 27°37' W 082°41'1212.0
2014-Aug-16 18:33N 27°36' W 082°55'9 8.8
2014-Aug-16 17:33N 27°30' W 083°03'  

Dump ship's entire track history